Time;durP1;ratioP1;P1;durP2;ratioP2;P2;SDS_P1;SDS_P2;PMS_P1;PMS_P2;Temp;Humidity;BMP_temperature;BMP_pressure;BME280_temperature;BME280_humidity;BME280_pressure;Samples;Min_cycle;Max_cycle;Signal;HPM_P1;HPM_P2
2022/04/12 00:00:00;;;;;;;1.07;0.60;;;6.30;99.90;;;;;;5065296;28;20213;-84
2022/04/12 00:02:28;;;;;;;2.30;1.53;;;6.30;99.90;;;;;;5081209;28;20231;-85
2022/04/12 00:04:54;;;;;;;1.80;1.70;;;6.30;99.90;;;;;;5080696;28;20867;-83
2022/04/12 00:07:20;;;;;;;14.00;1.63;;;6.30;99.90;;;;;;5046384;28;20632;-84
2022/04/12 00:09:46;;;;;;;1.70;1.57;;;6.30;99.90;;;;;;5063789;28;20734;-83
2022/04/12 00:12:15;;;;;;;2.33;1.53;;;6.30;99.90;;;;;;5064161;28;20212;-85
2022/04/12 00:14:41;;;;;;;1.47;1.37;;;6.30;99.90;;;;;;5064340;28;20227;-86
2022/04/12 00:19:52;;;;;;;0.73;0.73;;;6.30;99.90;;;;;;5063740;28;20237;-84
2022/04/12 00:22:18;;;;;;;2.50;1.27;;;6.30;99.90;;;;;;5080323;28;20238;-84
2022/04/12 00:24:43;;;;;;;0.80;0.80;;;6.20;99.90;;;;;;5080485;28;20201;-84
2022/04/12 00:27:09;;;;;;;2.77;1.67;;;6.10;99.90;;;;;;5063911;28;20334;-84
2022/04/12 00:29:35;;;;;;;1.53;1.43;;;6.00;99.90;;;;;;5063828;28;20665;-86
2022/04/12 00:32:00;;;;;;;0.70;0.70;;;6.00;99.90;;;;;;5064004;28;20244;-84
2022/04/12 00:34:26;;;;;;;1.67;1.50;;;5.90;99.90;;;;;;5063768;28;20259;-86
2022/04/12 00:36:52;;;;;;;1.00;1.00;;;5.90;99.90;;;;;;5064627;28;20255;-84
2022/04/12 00:39:18;;;;;;;0.97;0.97;;;5.80;99.90;;;;;;5046390;28;20270;-84
2022/04/12 00:41:44;;;;;;;0.63;0.60;;;5.80;99.90;;;;;;5060174;28;20201;-86
2022/04/12 00:44:09;;;;;;;0.97;0.80;;;5.70;99.90;;;;;;5044307;28;20188;-84
2022/04/12 00:46:36;;;;;;;0.70;0.70;;;5.70;99.90;;;;;;5044605;28;20217;-84
2022/04/12 00:49:02;;;;;;;3.03;1.53;;;5.70;99.90;;;;;;5080925;28;20212;-86
2022/04/12 00:51:28;;;;;;;1.33;0.93;;;5.70;99.90;;;;;;5064542;28;20237;-83
2022/04/12 00:53:56;;;;;;;1.07;1.00;;;5.60;99.90;;;;;;5064605;28;20255;-86
2022/04/12 00:56:24;;;;;;;1.17;1.07;;;5.60;99.90;;;;;;5080331;28;20276;-84
2022/04/12 00:58:49;;;;;;;0.70;0.70;;;5.60;99.90;;;;;;5046264;28;20221;-83
2022/04/12 01:01:15;;;;;;;3.63;1.07;;;5.50;99.90;;;;;;5046870;28;20217;-84
2022/04/12 01:03:42;;;;;;;1.17;0.60;;;5.50;99.90;;;;;;5067926;28;20220;-84
2022/04/12 01:06:07;;;;;;;0.70;0.70;;;5.50;99.90;;;;;;5066263;28;20229;-84
2022/04/12 01:08:34;;;;;;;1.30;0.83;;;5.50;99.90;;;;;;5067429;28;21045;-83
2022/04/12 01:11:06;;;;;;;0.77;0.77;;;5.40;99.90;;;;;;5050642;28;20225;-85
2022/04/12 01:13:36;;;;;;;1.90;1.37;;;5.40;99.90;;;;;;5057237;28;20574;-88
2022/04/12 01:16:01;;;;;;;4.60;1.67;;;5.40;99.90;;;;;;5066016;28;20780;-86
2022/04/12 01:18:27;;;;;;;1.37;1.10;;;5.30;99.90;;;;;;5049279;28;20224;-84
2022/04/12 01:20:53;;;;;;;1.23;0.73;;;5.30;99.90;;;;;;5049217;28;20726;-86
2022/04/12 01:23:33;;;;;;;1.97;1.33;;;5.30;99.90;;;;;;5066806;28;20197;-83
2022/04/12 01:25:59;;;;;;;1.30;1.20;;;5.30;99.90;;;;;;5083050;28;20553;-84
2022/04/12 01:28:25;;;;;;;1.20;1.10;;;5.20;99.90;;;;;;5065388;28;20213;-84
2022/04/12 01:30:51;;;;;;;0.93;0.93;;;5.10;99.90;;;;;;5066547;28;20237;-84
2022/04/12 01:33:17;;;;;;;1.60;1.50;;;5.10;99.90;;;;;;5049329;28;20263;-87
2022/04/12 01:35:43;;;;;;;1.07;1.07;;;5.10;99.90;;;;;;5066900;28;20193;-86
2022/04/12 01:38:09;;;;;;;1.50;1.40;;;5.10;99.90;;;;;;5049166;28;20263;-85
2022/04/12 01:40:34;;;;;;;1.10;1.10;;;5.10;99.90;;;;;;5066648;28;20229;-84
2022/04/12 01:43:00;;;;;;;0.73;0.73;;;5.10;99.90;;;;;;5066310;28;21082;-86
2022/04/12 01:45:26;;;;;;;1.80;1.70;;;5.10;99.90;;;;;;5066913;28;20209;-83
2022/04/12 01:47:53;;;;;;;1.90;1.57;;;5.10;99.90;;;;;;5046013;28;20197;-83
2022/04/12 01:50:18;;;;;;;1.77;1.23;;;5.10;99.90;;;;;;5046524;28;20237;-87
2022/04/12 01:52:44;;;;;;;1.20;1.10;;;5.10;99.90;;;;;;5045787;28;20760;-85
2022/04/12 01:55:10;;;;;;;1.37;1.17;;;5.10;99.90;;;;;;5064771;28;20685;-87
2022/04/12 01:57:36;;;;;;;1.53;1.43;;;5.10;99.90;;;;;;5048931;28;20225;-85
2022/04/12 02:00:04;;;;;;;2.10;0.97;;;5.00;99.90;;;;;;5082360;28;20219;-84
2022/04/12 02:02:30;;;;;;;2.00;1.80;;;4.90;99.90;;;;;;5042364;28;20189;-84
2022/04/12 02:04:55;;;;;;;1.67;1.57;;;5.00;99.90;;;;;;5083116;28;20260;-85
2022/04/12 02:07:22;;;;;;;1.50;1.40;;;5.00;99.90;;;;;;5066611;28;20229;-85
2022/04/12 02:09:48;;;;;;;1.80;1.33;;;5.00;99.90;;;;;;5066061;28;20233;-87
2022/04/12 02:12:13;;;;;;;2.23;1.33;;;5.10;99.90;;;;;;5066842;28;20240;-84
2022/04/12 02:14:39;;;;;;;1.20;1.10;;;5.00;99.90;;;;;;5061922;28;20242;-84
2022/04/12 02:17:05;;;;;;;1.73;1.63;;;5.10;99.90;;;;;;5065059;28;20250;-85
2022/04/12 02:19:30;;;;;;;1.57;1.47;;;5.10;99.90;;;;;;5065496;28;20220;-84
2022/04/12 02:21:56;;;;;;;1.40;1.30;;;5.20;99.90;;;;;;5048896;28;21200;-84
2022/04/12 02:24:22;;;;;;;2.03;1.83;;;5.20;99.90;;;;;;5082309;28;20248;-84
2022/04/12 02:26:47;;;;;;;2.00;1.20;;;5.30;99.90;;;;;;5065792;28;20348;-84
2022/04/12 02:29:13;;;;;;;2.90;1.77;;;5.30;99.90;;;;;;5083128;28;20193;-84
2022/04/12 02:31:41;;;;;;;5.20;1.13;;;5.40;99.90;;;;;;5065494;28;20225;-83
2022/04/12 02:34:07;;;;;;;2.10;1.30;;;5.40;99.90;;;;;;5056262;28;20290;-89
2022/04/12 02:36:33;;;;;;;2.13;2.00;;;5.40;99.90;;;;;;5065237;28;20321;-85
2022/04/12 02:38:58;;;;;;;3.90;2.20;;;5.20;99.90;;;;;;5063879;28;20304;-83
2022/04/12 02:41:24;;;;;;;1.67;1.43;;;5.00;99.90;;;;;;5064872;28;20622;-86
2022/04/12 02:43:50;;;;;;;2.43;1.97;;;4.80;99.90;;;;;;5065321;28;20221;-86
2022/04/12 02:46:16;;;;;;;1.50;1.43;;;4.80;99.90;;;;;;5065513;28;20221;-87
2022/04/12 02:48:41;;;;;;;8.63;1.87;;;4.70;99.90;;;;;;5081720;28;20229;-84
2022/04/12 02:51:07;;;;;;;1.60;1.50;;;4.70;99.90;;;;;;5066442;28;20958;-85
2022/04/12 02:53:33;;;;;;;2.87;1.43;;;4.70;99.90;;;;;;5065266;28;20217;-81
2022/04/12 02:55:58;;;;;;;2.27;1.30;;;4.60;99.90;;;;;;5065879;28;20216;-86
2022/04/12 02:58:24;;;;;;;1.23;1.07;;;4.50;99.90;;;;;;5064717;28;20304;-84
2022/04/12 03:00:50;;;;;;;2.43;2.23;;;4.60;99.90;;;;;;5047927;28;21138;-84
2022/04/12 03:03:16;;;;;;;6.70;2.30;;;4.60;99.90;;;;;;5047614;28;20712;-85
2022/04/12 03:05:41;;;;;;;1.80;1.70;;;4.60;99.90;;;;;;5066088;28;20278;-84
2022/04/12 03:08:07;;;;;;;2.27;2.17;;;4.70;99.90;;;;;;5081910;28;20282;-84
2022/04/12 03:10:33;;;;;;;3.50;1.77;;;4.80;99.90;;;;;;5066158;28;20232;-87
2022/04/12 03:12:59;;;;;;;2.23;2.07;;;4.80;99.90;;;;;;5047334;28;20217;-83
2022/04/12 03:15:25;;;;;;;1.97;1.80;;;4.80;99.90;;;;;;5064650;28;20240;-84
2022/04/12 03:17:50;;;;;;;2.03;1.93;;;4.80;99.90;;;;;;5048244;28;20585;-83
2022/04/12 03:20:16;;;;;;;1.63;1.53;;;4.90;99.90;;;;;;5081960;28;20201;-83
2022/04/12 03:22:42;;;;;;;1.77;1.20;;;4.90;99.90;;;;;;5048153;28;20254;-84
2022/04/12 03:25:09;;;;;;;3.23;2.93;;;4.90;99.90;;;;;;5064361;28;20737;-84
2022/04/12 03:27:35;;;;;;;2.20;1.37;;;4.90;99.90;;;;;;5065526;28;20233;-84
2022/04/12 03:30:02;;;;;;;3.07;2.00;;;4.90;99.90;;;;;;5081425;28;20691;-84
2022/04/12 03:32:28;;;;;;;2.43;1.90;;;4.90;99.90;;;;;;5057299;28;20609;-85
2022/04/12 03:34:53;;;;;;;2.80;2.60;;;4.90;99.90;;;;;;5065475;28;20225;-85
2022/04/12 03:37:19;;;;;;;1.60;1.50;;;4.90;99.90;;;;;;5065997;28;21021;-83
2022/04/12 03:39:45;;;;;;;3.00;2.80;;;4.80;99.90;;;;;;5064005;28;20233;-83
2022/04/12 03:42:11;;;;;;;3.80;1.17;;;4.70;99.90;;;;;;5047474;28;20221;-84
2022/04/12 03:44:37;;;;;;;4.40;3.27;;;4.70;99.90;;;;;;5063709;28;20197;-86
2022/04/12 03:47:03;;;;;;;7.23;1.83;;;4.70;99.90;;;;;;5064752;28;20193;-85
2022/04/12 03:49:29;;;;;;;1.40;1.23;;;4.70;99.90;;;;;;5064309;28;20224;-82
2022/04/12 03:51:55;;;;;;;2.20;1.90;;;4.70;99.90;;;;;;5080380;28;20687;-83
2022/04/12 03:54:20;;;;;;;2.33;2.13;;;4.70;99.90;;;;;;5081203;28;20221;-85
2022/04/12 03:56:46;;;;;;;4.33;2.50;;;4.80;99.90;;;;;;5064217;28;20960;-86
2022/04/12 03:59:12;;;;;;;1.20;1.10;;;4.90;99.90;;;;;;5064968;28;20193;-86
2022/04/12 04:01:37;;;;;;;3.20;1.00;;;5.00;99.90;;;;;;5063520;28;20232;-85
2022/04/12 04:04:03;;;;;;;3.10;2.70;;;5.10;99.90;;;;;;5080488;28;20683;-85
2022/04/12 04:06:29;;;;;;;7.23;1.87;;;5.20;99.90;;;;;;5062145;28;20258;-84
2022/04/12 04:08:55;;;;;;;2.90;1.97;;;5.30;99.90;;;;;;5077984;28;20347;-84
2022/04/12 04:11:21;;;;;;;3.10;2.37;;;5.40;99.90;;;;;;5065446;28;20225;-85
2022/04/12 04:13:46;;;;;;;1.53;1.43;;;5.50;99.90;;;;;;5065222;28;20268;-84
2022/04/12 04:16:12;;;;;;;3.00;2.50;;;5.50;99.90;;;;;;5080831;28;20244;-87
2022/04/12 04:18:38;;;;;;;3.13;1.83;;;5.50;99.90;;;;;;5080887;28;20221;-86
2022/04/12 04:21:04;;;;;;;4.73;2.53;;;5.60;99.90;;;;;;5065071;28;20228;-87
2022/04/12 04:23:30;;;;;;;2.00;1.90;;;5.60;99.90;;;;;;5047993;28;20215;-84
2022/04/12 04:25:56;;;;;;;2.03;1.93;;;5.70;99.90;;;;;;5055503;28;20247;-84
2022/04/12 04:28:21;;;;;;;3.50;2.07;;;5.80;99.90;;;;;;5046819;28;20340;-87
2022/04/12 04:30:49;;;;;;;1.83;1.73;;;5.80;99.90;;;;;;5063710;28;20249;-84
2022/04/12 04:33:19;;;;;;;1.97;1.87;;;5.80;99.90;;;;;;5064751;28;20278;-84
2022/04/12 04:35:45;;;;;;;2.23;2.13;;;5.80;99.90;;;;;;5062830;28;20189;-84
2022/04/12 04:38:11;;;;;;;4.20;2.50;;;5.70;99.90;;;;;;5083383;28;20246;-85
2022/04/12 04:40:37;;;;;;;2.37;2.17;;;5.70;99.90;;;;;;5068131;28;20217;-84
2022/04/12 04:43:03;;;;;;;2.40;1.80;;;5.70;99.90;;;;;;5067256;28;20262;-85
2022/04/12 04:45:29;;;;;;;2.60;2.27;;;5.60;99.90;;;;;;5067348;28;20231;-85
2022/04/12 04:48:00;;;;;;;2.77;2.50;;;5.70;99.90;;;;;;5084790;28;20221;-84
2022/04/12 04:50:29;;;;;;;2.20;2.00;;;5.70;99.90;;;;;;5050938;28;20354;-85
2022/04/12 04:52:56;;;;;;;4.37;2.00;;;5.70;99.90;;;;;;5050190;28;20220;-85
2022/04/12 04:55:23;;;;;;;3.27;2.90;;;5.80;99.90;;;;;;5066988;28;20232;-82
2022/04/12 04:57:52;;;;;;;4.20;2.90;;;5.80;99.90;;;;;;5068336;28;20216;-84
2022/04/12 05:00:19;;;;;;;3.93;1.60;;;5.80;99.90;;;;;;5066821;28;20236;-86
2022/04/12 05:02:46;;;;;;;2.50;2.17;;;5.90;99.90;;;;;;5047118;28;20188;-84
2022/04/12 05:05:13;;;;;;;1.37;1.10;;;5.80;99.90;;;;;;5050677;28;20200;-85
2022/04/12 05:07:40;;;;;;;1.77;1.53;;;5.90;99.90;;;;;;5058017;28;20304;-90
2022/04/12 05:10:07;;;;;;;2.23;2.03;;;5.90;99.90;;;;;;5050781;28;20247;-84
2022/04/12 05:12:33;;;;;;;1.00;1.00;;;5.90;99.90;;;;;;5066502;28;20216;-83
2022/04/12 05:14:59;;;;;;;2.13;1.57;;;6.00;99.90;;;;;;5083465;28;20825;-83
2022/04/12 05:17:26;;;;;;;1.70;1.60;;;6.00;99.90;;;;;;5067796;28;20640;-84
2022/04/12 05:19:53;;;;;;;2.03;1.93;;;6.10;99.90;;;;;;5050009;28;20221;-84
2022/04/12 05:22:19;;;;;;;2.67;2.20;;;6.10;99.90;;;;;;5066779;28;20228;-84
2022/04/12 05:24:46;;;;;;;1.60;1.50;;;6.20;99.90;;;;;;5082914;28;20221;-85
2022/04/12 05:27:12;;;;;;;1.03;1.03;;;6.30;99.90;;;;;;5067622;28;20253;-85
2022/04/12 05:29:38;;;;;;;4.37;2.83;;;6.30;99.90;;;;;;5066542;28;20329;-86
2022/04/12 05:32:05;;;;;;;4.33;2.70;;;6.30;99.90;;;;;;5050305;28;20642;-85
2022/04/12 05:34:31;;;;;;;4.30;2.13;;;6.20;99.90;;;;;;5068041;28;20244;-86
2022/04/12 05:36:56;;;;;;;1.90;1.80;;;6.30;99.90;;;;;;5050245;28;20891;-88
2022/04/12 05:39:23;;;;;;;2.60;2.13;;;6.30;99.90;;;;;;5067538;28;20771;-86
2022/04/12 05:41:48;;;;;;;2.40;2.30;;;6.30;99.90;;;;;;5065810;28;20208;-86
2022/04/12 05:44:14;;;;;;;1.30;1.30;;;6.30;99.90;;;;;;5050699;28;20193;-85
2022/04/12 05:46:40;;;;;;;2.13;1.97;;;6.40;99.90;;;;;;5058693;28;20700;-88
2022/04/12 05:49:06;;;;;;;3.13;2.30;;;6.40;99.90;;;;;;5066188;28;20576;-86
2022/04/12 05:51:31;;;;;;;3.07;2.13;;;6.50;99.90;;;;;;5066760;28;20244;-86
2022/04/12 05:53:57;;;;;;;4.20;2.67;;;6.50;99.90;;;;;;5066250;28;20231;-86
2022/04/12 05:56:23;;;;;;;2.80;2.70;;;6.60;99.90;;;;;;5067245;28;20631;-86
2022/04/12 05:58:48;;;;;;;4.30;1.53;;;6.60;99.90;;;;;;5062252;28;20270;-87
2022/04/12 06:01:14;;;;;;;2.37;2.13;;;6.60;99.90;;;;;;5066409;28;20216;-85
2022/04/12 06:03:40;;;;;;;2.57;2.37;;;6.70;99.90;;;;;;5039547;28;20229;-86
2022/04/12 06:06:05;;;;;;;2.23;2.03;;;6.70;99.90;;;;;;5081974;28;20685;-86
2022/04/12 06:08:31;;;;;;;4.53;2.43;;;6.80;99.90;;;;;;5065762;28;20269;-86
2022/04/12 06:10:57;;;;;;;2.33;2.17;;;6.90;99.90;;;;;;5064845;28;20320;-87
2022/04/12 06:13:23;;;;;;;2.53;2.33;;;6.90;99.90;;;;;;5065228;28;20245;-84
2022/04/12 06:15:48;;;;;;;2.10;1.90;;;7.10;99.90;;;;;;5065206;28;20221;-87
2022/04/12 06:18:14;;;;;;;1.57;1.17;;;7.10;99.90;;;;;;5049181;28;20225;-85
2022/04/12 06:20:40;;;;;;;4.07;2.37;;;7.10;99.90;;;;;;5049231;28;20701;-84
2022/04/12 06:23:06;;;;;;;1.67;1.57;;;7.10;99.90;;;;;;5066202;28;20205;-87
2022/04/12 06:25:31;;;;;;;1.77;1.47;;;7.20;99.90;;;;;;5082378;28;20245;-87
2022/04/12 06:27:57;;;;;;;3.57;2.03;;;7.20;99.90;;;;;;5065601;28;20221;-87
2022/04/12 06:30:25;;;;;;;5.27;2.47;;;7.20;99.90;;;;;;5063106;28;20394;-85
2022/04/12 06:32:52;;;;;;;3.10;2.60;;;7.10;99.90;;;;;;5079430;28;20186;-85
2022/04/12 06:35:18;;;;;;;2.70;2.50;;;7.20;99.90;;;;;;5048630;28;20186;-84
2022/04/12 06:37:46;;;;;;;2.93;2.73;;;7.20;99.90;;;;;;5064989;28;20837;-87
2022/04/12 06:40:13;;;;;;;3.07;2.67;;;7.30;99.90;;;;;;5066361;28;20217;-85
2022/04/12 06:42:40;;;;;;;4.07;3.60;;;7.30;99.90;;;;;;5063674;28;21120;-85
2022/04/12 06:45:13;;;;;;;5.70;3.57;;;7.40;99.90;;;;;;5080223;28;20980;-87
2022/04/12 06:47:40;;;;;;;4.87;3.53;;;7.50;99.90;;;;;;5046288;28;20235;-84
2022/04/12 06:50:06;;;;;;;5.30;4.20;;;7.70;99.90;;;;;;5047680;28;20185;-84
2022/04/12 06:52:32;;;;;;;4.83;3.03;;;7.70;99.90;;;;;;5048263;28;20264;-84
2022/04/12 06:54:58;;;;;;;3.87;2.13;;;7.80;99.90;;;;;;5081471;28;21027;-85
2022/04/12 06:57:24;;;;;;;4.10;3.70;;;8.10;99.90;;;;;;5047948;28;20611;-85
2022/04/12 06:59:53;;;;;;;4.27;3.73;;;8.40;99.90;;;;;;5064965;28;20285;-84
2022/04/12 07:02:18;;;;;;;6.77;3.57;;;8.60;99.90;;;;;;5056451;28;20194;-85
2022/04/12 07:04:44;;;;;;;2.30;1.70;;;8.70;99.90;;;;;;5063439;28;20375;-85
2022/04/12 07:07:10;;;;;;;3.97;2.70;;;8.80;99.90;;;;;;5078875;28;20216;-85
2022/04/12 07:09:36;;;;;;;2.60;2.40;;;9.20;99.90;;;;;;5062340;28;20229;-88
2022/04/12 07:12:02;;;;;;;2.90;2.33;;;9.20;99.90;;;;;;5064662;28;20664;-90
2022/04/12 07:14:29;;;;;;;1.43;1.43;;;9.20;99.90;;;;;;5065481;28;20217;-90
2022/04/12 07:16:56;;;;;;;5.27;4.77;;;9.00;99.90;;;;;;5048993;28;20213;-90
2022/04/12 07:19:22;;;;;;;3.50;2.73;;;8.90;99.90;;;;;;5056380;28;20295;-89
2022/04/12 07:21:48;;;;;;;3.07;2.57;;;9.00;99.90;;;;;;5081339;28;20295;-89
2022/04/12 07:24:14;;;;;;;4.47;3.07;;;9.20;99.90;;;;;;5065122;28;20218;-89
2022/04/12 07:26:40;;;;;;;4.23;3.80;;;9.90;99.90;;;;;;5058125;28;20268;-90
2022/04/12 07:29:06;;;;;;;2.50;2.30;;;10.60;99.90;;;;;;5064958;28;20182;-90
2022/04/12 07:31:32;;;;;;;7.43;2.73;;;10.60;99.90;;;;;;5048549;28;20228;-91
2022/04/12 07:33:58;;;;;;;8.97;3.23;;;11.00;99.90;;;;;;5047011;28;20248;-87
2022/04/12 07:36:24;;;;;;;5.47;3.00;;;11.60;99.90;;;;;;5056552;28;20280;-87
2022/04/12 07:38:50;;;;;;;3.27;3.07;;;11.50;99.90;;;;;;5045498;28;20930;-87
2022/04/12 07:41:16;;;;;;;3.37;2.43;;;11.50;99.90;;;;;;5047011;28;20235;-87
2022/04/12 07:43:44;;;;;;;4.27;1.90;;;11.80;99.90;;;;;;5061738;28;20225;-86
2022/04/12 07:46:09;;;;;;;5.43;3.13;;;11.70;99.90;;;;;;5046690;28;20273;-87
2022/04/12 07:48:35;;;;;;;6.33;3.90;;;11.60;99.90;;;;;;5063527;28;20209;-88
2022/04/12 07:51:01;;;;;;;3.40;2.83;;;11.80;99.90;;;;;;5046292;28;20248;-87
2022/04/12 07:53:26;;;;;;;3.47;1.83;;;11.90;99.90;;;;;;5081337;28;20197;-89
2022/04/12 07:55:52;;;;;;;6.73;2.97;;;11.70;99.90;;;;;;5064322;28;20213;-89
2022/04/12 07:58:18;;;;;;;2.63;1.97;;;11.90;99.90;;;;;;5063802;28;20216;-88
2022/04/12 08:00:44;;;;;;;4.23;3.83;;;12.30;99.90;;;;;;5064020;28;20639;-89
2022/04/12 08:03:09;;;;;;;3.73;2.60;;;12.20;99.90;;;;;;5080451;28;20224;-89
2022/04/12 08:05:35;;;;;;;4.10;3.37;;;12.20;99.90;;;;;;5063453;28;20201;-87
2022/04/12 08:08:02;;;;;;;2.77;2.13;;;12.20;99.90;;;;;;5064029;28;20248;-87
2022/04/12 08:10:28;;;;;;;3.23;1.83;;;12.50;99.90;;;;;;5079783;28;20244;-88
2022/04/12 08:12:55;;;;;;;3.57;3.13;;;12.40;99.90;;;;;;5045610;28;20213;-88
2022/04/12 08:15:22;;;;;;;4.50;2.87;;;12.40;99.90;;;;;;5079433;28;20224;-88
2022/04/12 08:17:48;;;;;;;3.97;3.50;;;12.50;99.90;;;;;;5079803;28;20246;-89
2022/04/12 08:20:14;;;;;;;6.20;2.57;;;13.10;99.90;;;;;;5064559;28;20250;-88
2022/04/12 08:22:41;;;;;;;5.53;2.80;;;13.10;99.90;;;;;;5046563;28;20233;-88
2022/04/12 08:25:08;;;;;;;5.87;3.57;;;13.00;99.90;;;;;;5046234;28;20221;-88
2022/04/12 08:27:34;;;;;;;5.57;4.07;;;13.10;99.90;;;;;;5078834;28;20212;-87
2022/04/12 08:30:00;;;;;;;4.17;2.67;;;13.20;99.90;;;;;;5062765;28;20670;-86
2022/04/12 08:32:25;;;;;;;3.93;3.27;;;13.30;99.90;;;;;;5064834;28;20365;-87
2022/04/12 08:34:53;;;;;;;4.07;2.93;;;13.60;99.90;;;;;;5062869;28;20217;-88
2022/04/12 08:37:19;;;;;;;5.63;4.00;;;13.30;99.90;;;;;;5079655;28;20704;-89
2022/04/12 08:39:45;;;;;;;4.33;2.87;;;13.30;99.90;;;;;;5045911;28;20229;-87
2022/04/12 08:42:11;;;;;;;3.37;2.53;;;13.30;99.90;;;;;;5063808;28;20275;-88
2022/04/12 08:44:37;;;;;;;5.63;3.17;;;13.30;99.90;;;;;;5045900;28;20185;-90
2022/04/12 08:47:07;;;;;;;3.80;3.13;;;13.60;99.90;;;;;;5046151;28;20206;-90
2022/04/12 08:49:35;;;;;;;8.80;4.43;;;14.10;99.90;;;;;;5063835;28;20217;-90
2022/04/12 08:52:02;;;;;;;3.20;2.30;;;14.00;99.90;;;;;;5038003;28;20229;-89
2022/04/12 08:54:28;;;;;;;5.53;2.90;;;13.90;99.90;;;;;;5045230;28;20331;-90
2022/04/12 08:56:54;;;;;;;3.63;2.40;;;13.40;99.90;;;;;;5063019;28;20221;-90
2022/04/12 08:59:20;;;;;;;6.63;3.57;;;13.40;99.90;;;;;;5063267;28;20247;-89
2022/04/12 09:01:46;;;;;;;3.13;2.77;;;13.70;99.90;;;;;;5044769;28;20217;-88
2022/04/12 09:04:12;;;;;;;6.00;3.97;;;13.90;99.90;;;;;;5064196;28;20227;-88
2022/04/12 09:06:48;;;;;;;6.00;3.77;;;14.50;99.90;;;;;;5078714;28;20217;-86
2022/04/12 09:09:18;;;;;;;4.83;3.30;;;14.00;99.90;;;;;;5079501;28;20237;-87
2022/04/12 09:12:06;;;;;;;4.23;3.20;;;14.00;99.90;;;;;;5063629;28;20217;-90
2022/04/12 09:14:56;;;;;;;5.40;2.93;;;14.20;99.90;;;;;;5046644;28;20622;-90
2022/04/12 09:17:35;;;;;;;8.60;3.20;;;14.90;99.90;;;;;;5045511;28;20227;-91
2022/04/12 09:20:04;;;;;;;5.60;2.97;;;15.40;99.90;;;;;;5063987;28;20232;-90
2022/04/12 09:22:32;;;;;;;6.07;3.63;;;14.90;99.90;;;;;;5079478;28;20596;-90
2022/04/12 09:25:02;;;;;;;4.90;3.40;;;14.90;99.90;;;;;;5066984;28;20228;-91
2022/04/12 09:27:31;;;;;;;5.53;3.33;;;14.80;99.90;;;;;;5044472;28;20569;-90
2022/04/12 09:29:59;;;;;;;3.70;2.43;;;15.00;99.90;;;;;;5049078;28;20296;-90
2022/04/12 09:32:27;;;;;;;5.47;3.03;;;14.90;99.90;;;;;;5083063;28;20226;-89
2022/04/12 09:34:54;;;;;;;6.00;3.40;;;15.20;99.90;;;;;;5058197;28;20228;-89
2022/04/12 09:37:21;;;;;;;5.07;3.60;;;14.80;99.90;;;;;;5048473;28;20225;-89
2022/04/12 09:39:58;;;;;;;6.17;4.00;;;15.10;99.90;;;;;;5048998;28;20242;-89
2022/04/12 09:42:42;;;;;;;10.50;4.50;;;15.00;99.90;;;;;;5066757;28;20226;-89
2022/04/12 09:45:24;;;;;;;4.20;3.80;;;14.90;99.90;;;;;;5057431;28;20235;-89
2022/04/12 09:47:52;;;;;;;5.50;4.63;;;15.20;99.90;;;;;;5066853;28;20177;-87
2022/04/12 09:50:29;;;;;;;5.17;3.43;;;14.80;99.90;;;;;;5040371;28;20657;-87
2022/04/12 09:53:00;;;;;;;4.93;3.50;;;14.90;99.90;;;;;;5073425;28;20705;-86
2022/04/12 09:55:36;;;;;;;7.13;3.40;;;14.90;99.90;;;;;;5082748;28;20591;-88
2022/04/12 09:58:04;;;;;;;5.73;3.47;;;15.20;99.90;;;;;;5066472;28;20223;-87
2022/04/12 10:00:30;;;;;;;4.33;3.27;;;15.30;99.90;;;;;;5082323;28;20274;-88
2022/04/12 10:03:05;;;;;;;4.60;3.30;;;15.20;99.90;;;;;;5065702;28;20589;-89
2022/04/12 10:05:31;;;;;;;7.17;3.77;;;15.50;99.90;;;;;;5049099;28;20649;-87
2022/04/12 10:07:58;;;;;;;4.73;3.60;;;15.60;99.90;;;;;;5066426;28;20251;-87
2022/04/12 10:10:25;;;;;;;4.37;2.73;;;15.00;99.90;;;;;;5064603;28;20221;-88
2022/04/12 10:12:53;;;;;;;6.50;3.70;;;14.80;99.90;;;;;;5083217;28;20303;-88
2022/04/12 10:15:21;;;;;;;8.40;4.80;;;15.20;99.90;;;;;;5048227;28;20224;-87
2022/04/12 10:17:48;;;;;;;7.47;4.67;;;15.20;99.90;;;;;;5048556;28;20193;-88
2022/04/12 10:20:15;;;;;;;5.97;3.83;;;15.70;99.90;;;;;;5066161;28;20280;-89
2022/04/12 10:22:42;;;;;;;7.03;3.80;;;15.80;99.90;;;;;;5066394;28;20677;-88
2022/04/12 10:25:10;;;;;;;4.70;3.20;;;15.40;99.90;;;;;;5066095;28;20255;-89
2022/04/12 10:27:37;;;;;;;6.10;4.30;;;15.60;99.90;;;;;;5065043;28;20218;-87
2022/04/12 10:30:15;;;;;;;13.57;5.83;;;16.10;99.90;;;;;;5048126;28;20217;-88
2022/04/12 10:33:16;;;;;;;7.57;4.50;;;16.30;99.90;;;;;;5066188;28;20324;-87
2022/04/12 10:35:44;;;;;;;6.53;4.53;;;16.30;99.90;;;;;;5031032;28;20193;-89
2022/04/12 10:38:15;;;;;;;8.97;4.13;;;16.00;99.90;;;;;;5065105;28;20200;-90
2022/04/12 10:40:49;;;;;;;6.17;4.20;;;16.50;99.90;;;;;;5064674;28;20249;-90
2022/04/12 10:43:33;;;;;;;5.63;4.33;;;16.40;99.90;;;;;;5080138;28;20217;-92
2022/04/12 10:46:01;;;;;;;7.97;4.47;;;16.20;99.90;;;;;;5081441;28;20296;-88
2022/04/12 10:48:29;;;;;;;4.97;4.03;;;16.30;99.90;;;;;;5064155;28;20225;-88
2022/04/12 10:50:58;;;;;;;7.80;4.93;;;15.90;99.90;;;;;;5064781;28;20302;-89
2022/04/12 10:53:36;;;;;;;8.53;4.83;;;16.00;99.90;;;;;;5064188;28;20189;-90
2022/04/12 10:56:09;;;;;;;8.60;4.73;;;16.30;99.90;;;;;;5080224;28;20674;-89
2022/04/12 10:58:35;;;;;;;7.40;5.03;;;16.80;99.90;;;;;;5047023;28;20278;-89
2022/04/12 11:01:03;;;;;;;8.67;3.57;;;16.80;99.90;;;;;;5064266;28;20232;-92
2022/04/12 11:03:41;;;;;;;8.63;4.83;;;16.60;99.90;;;;;;5064983;28;20258;-88
2022/04/12 11:06:33;;;;;;;6.07;4.63;;;16.70;99.90;;;;;;5065757;28;20350;-89
2022/04/12 11:09:10;;;;;;;5.40;4.50;;;16.80;99.90;;;;;;5029563;28;20897;-89
2022/04/12 11:11:39;;;;;;;5.00;4.10;;;17.00;99.90;;;;;;5065050;28;20213;-87
2022/04/12 11:14:29;;;;;;;4.60;3.53;;;17.10;99.90;;;;;;5079898;28;20649;-87
2022/04/12 11:17:06;;;;;;;6.03;4.63;;;17.00;99.90;;;;;;5045379;28;20209;-87
2022/04/12 11:19:42;;;;;;;7.30;3.90;;;16.80;99.90;;;;;;5063585;28;20605;-85
2022/04/12 11:22:11;;;;;;;5.20;3.33;;;16.70;99.90;;;;;;5051366;28;20224;-86
2022/04/12 11:24:37;;;;;;;5.97;4.07;;;16.50;99.90;;;;;;5063163;28;20233;-85
2022/04/12 11:27:13;;;;;;;5.70;3.53;;;16.40;99.90;;;;;;5062256;28;20580;-86
2022/04/12 11:29:40;;;;;;;6.57;4.50;;;16.40;99.90;;;;;;5062102;28;20184;-86
2022/04/12 11:32:07;;;;;;;7.10;3.90;;;16.50;99.90;;;;;;5080010;28;20201;-85
2022/04/12 11:34:36;;;;;;;6.63;4.13;;;16.50;99.90;;;;;;5079292;28;20316;-87
2022/04/12 11:37:08;;;;;;;9.07;4.70;;;16.80;99.90;;;;;;5062410;28;20217;-87
2022/04/12 11:39:38;;;;;;;6.07;4.57;;;17.10;99.90;;;;;;5044738;28;20216;-85
2022/04/12 11:42:08;;;;;;;11.47;4.60;;;17.10;99.90;;;;;;5035004;28;20221;-86
2022/04/12 11:44:34;;;;;;;6.37;3.83;;;17.10;99.90;;;;;;5063826;28;20265;-88
2022/04/12 11:47:04;;;;;;;9.13;4.93;;;16.80;99.90;;;;;;5046335;28;20187;-89
2022/04/12 11:49:32;;;;;;;6.20;3.27;;;16.90;99.90;;;;;;5063320;28;20528;-87
2022/04/12 11:52:02;;;;;;;6.63;4.10;;;17.00;99.90;;;;;;5078378;28;20225;-87
2022/04/12 11:54:31;;;;;;;1.60;1.50;;;17.00;99.90;;;;;;5063902;28;20714;-87
2022/04/12 11:57:05;;;;;;;5.70;3.63;;;16.90;99.90;;;;;;5063029;28;20700;-88
2022/04/12 11:59:53;;;;;;;7.23;4.50;;;16.80;99.90;;;;;;5046785;28;20183;-86
2022/04/12 12:02:30;;;;;;;4.63;3.10;;;16.90;99.90;;;;;;5079371;28;20221;-87
2022/04/12 12:05:07;;;;;;;5.77;3.70;;;16.90;99.90;;;;;;5045992;28;20684;-86
2022/04/12 12:07:36;;;;;;;5.10;4.00;;;17.00;99.90;;;;;;5063311;28;20290;-87
2022/04/12 12:10:09;;;;;;;6.97;3.77;;;16.90;99.90;;;;;;5044604;28;20217;-86
2022/04/12 12:12:38;;;;;;;5.30;3.17;;;16.90;99.90;;;;;;5044424;28;20245;-85
2022/04/12 12:15:26;;;;;;;4.07;3.40;;;16.70;99.90;;;;;;5052063;28;20217;-89
2022/04/12 12:17:57;;;;;;;5.13;2.53;;;16.70;99.90;;;;;;5045426;28;20989;-86
2022/04/12 12:20:25;;;;;;;8.97;4.07;;;16.70;99.90;;;;;;5063894;28;20207;-86
2022/04/12 12:22:59;;;;;;;4.87;3.77;;;16.80;99.90;;;;;;5045283;28;20434;-86
2022/04/12 12:25:40;;;;;;;4.47;3.53;;;16.80;99.90;;;;;;5044661;28;20611;-85
2022/04/12 12:28:17;;;;;;;6.80;3.37;;;16.90;99.90;;;;;;5061129;28;20533;-86
2022/04/12 12:30:44;;;;;;;5.33;2.43;;;17.00;99.90;;;;;;5062293;28;20294;-85
2022/04/12 12:33:10;;;;;;;6.47;4.07;;;17.00;99.90;;;;;;5063986;28;20224;-87
2022/04/12 12:35:41;;;;;;;6.03;3.50;;;16.90;99.90;;;;;;5045226;28;21048;-87
2022/04/12 12:38:17;;;;;;;5.07;2.77;;;16.90;99.90;;;;;;5045996;28;20601;-86
2022/04/12 12:40:44;;;;;;;6.63;2.90;;;16.90;99.90;;;;;;5078947;28;20274;-87
2022/04/12 12:43:12;;;;;;;4.93;2.83;;;16.90;99.90;;;;;;5064065;28;20221;-87
2022/04/12 12:45:46;;;;;;;6.87;3.03;;;16.90;99.90;;;;;;5062345;28;20217;-86
2022/04/12 12:48:15;;;;;;;4.40;3.70;;;17.10;99.90;;;;;;5063888;28;20217;-86
2022/04/12 12:50:42;;;;;;;4.70;3.87;;;17.20;99.90;;;;;;5045767;28;20221;-86
2022/04/12 12:53:13;;;;;;;6.20;2.90;;;17.20;99.90;;;;;;5062821;28;20188;-86
2022/04/12 12:55:42;;;;;;;4.17;3.13;;;17.20;99.90;;;;;;5064319;28;20228;-86
2022/04/12 12:58:12;;;;;;;4.63;3.27;;;17.10;99.90;;;;;;5063946;28;20312;-88